Aviation Digital Data Service (ADDS)

Output produced by METARs form (2234 UTC 01 February 2023)
found at http://www.aviationweather.gov/metar/data/
 
KHSV 012153Z 36007KT 8SM OVC011 03/01 A3027 RMK AO2 SLP254 T00280006
KHSV 011729Z 0118/0218 36008KT P6SM BKN007 OVC010 
     FM012200 01006KT P6SM BKN009 
     FM020400 VRB04KT P6SM OVC009 
     PROB30 0206/0208 4SM -SHRA BR OVC001 
     FM020800 03005KT 4SM SHRA BR OVC006